Time;durP1;ratioP1;P1;durP2;ratioP2;P2;SDS_P1;SDS_P2;PMS_P1;PMS_P2;Temp;Humidity;BMP_temperature;BMP_pressure;BME280_temperature;BME280_humidity;BME280_pressure;Samples;Min_cycle;Max_cycle;Signal;HPM_P1;HPM_P2
2022/01/01 00:04:28;;;;;;;24.00;16.50;;;4.40;87.40;;;;;;10788412;33;20458;-73
2022/01/01 00:10:30;;;;;;;73.30;33.28;;;4.50;87.40;;;;;;10786668;33;20043;-73
2022/01/01 00:16:32;;;;;;;48.92;27.73;;;4.40;87.20;;;;;;10788135;33;20059;-73
2022/01/01 00:22:35;;;;;;;56.05;30.95;;;4.30;87.30;;;;;;10787992;33;20397;-73
2022/01/01 00:28:38;;;;;;;24.95;19.10;;;4.40;87.30;;;;;;10783710;33;20077;-73
2022/01/01 00:34:40;;;;;;;29.23;20.45;;;4.30;87.50;;;;;;10786600;33;20029;-73
2022/01/01 00:40:42;;;;;;;35.95;25.55;;;4.40;87.40;;;;;;10787486;33;20054;-72
2022/01/01 00:46:44;;;;;;;45.50;30.00;;;4.40;87.40;;;;;;10787687;33;20345;-73
2022/01/01 00:52:50;;;;;;;21.83;16.65;;;4.40;87.40;;;;;;10787471;33;20039;-73
2022/01/01 00:58:52;;;;;;;35.53;25.55;;;4.40;87.30;;;;;;10787124;33;20024;-73
2022/01/01 01:04:54;;;;;;;34.90;25.33;;;4.40;87.20;;;;;;10787104;33;20020;-73
2022/01/01 01:10:57;;;;;;;31.08;25.80;;;4.30;87.30;;;;;;10786910;33;20046;-73
2022/01/01 01:17:00;;;;;;;24.08;17.70;;;4.30;87.30;;;;;;10786945;33;20024;-73
2022/01/01 01:23:02;;;;;;;27.98;19.87;;;4.20;87.30;;;;;;10786732;33;20024;-73
2022/01/01 01:29:37;;;;;;;44.40;23.40;;;4.20;87.30;;;;;;10786483;33;20286;-72
2022/01/01 01:35:39;;;;;;;18.60;13.95;;;4.20;87.30;;;;;;10779608;33;20028;-71
2022/01/01 01:41:43;;;;;;;32.53;23.17;;;4.20;87.30;;;;;;10130383;32;22025784;-71
2022/01/01 01:47:47;;;;;;;25.58;20.48;;;4.30;87.20;;;;;;10906353;32;20035;-71
2022/01/01 01:53:50;;;;;;;26.98;20.40;;;4.20;87.30;;;;;;10905234;32;20015;-71
2022/01/01 01:59:52;;;;;;;27.25;19.52;;;4.20;87.30;;;;;;10906386;32;20053;-71
2022/01/01 02:05:56;;;;;;;30.88;22.25;;;4.20;87.40;;;;;;10901334;32;20146;-71
2022/01/01 02:11:59;;;;;;;23.77;15.98;;;4.20;87.30;;;;;;10908995;32;20028;-71
2022/01/01 02:18:01;;;;;;;16.77;13.45;;;4.20;87.30;;;;;;10908472;32;20019;-71
2022/01/01 02:24:05;;;;;;;33.97;25.20;;;4.20;87.30;;;;;;10893471;32;20045;-71
2022/01/01 02:30:10;;;;;;;22.33;16.55;;;4.20;87.30;;;;;;10895011;32;20035;-71
2022/01/01 02:36:35;;;;;;;19.87;14.57;;;4.20;87.30;;;;;;10906122;32;20335;-71
2022/01/01 02:42:42;;;;;;;20.60;15.93;;;4.20;87.20;;;;;;10906950;32;20335;-71
2022/01/01 02:48:45;;;;;;;28.42;21.45;;;4.10;87.20;;;;;;10907739;32;20327;-72
2022/01/01 02:54:47;;;;;;;23.95;17.10;;;4.20;87.30;;;;;;10907357;32;20031;-73
2022/01/01 03:00:49;;;;;;;22.73;15.43;;;4.20;87.20;;;;;;10907160;32;20446;-73
2022/01/01 03:06:55;;;;;;;27.87;18.48;;;4.10;87.20;;;;;;10907063;32;20354;-73
2022/01/01 03:12:57;;;;;;;31.25;23.17;;;4.10;87.30;;;;;;10906771;32;20046;-73
2022/01/01 03:18:59;;;;;;;32.92;20.83;;;4.20;87.30;;;;;;10906502;32;20020;-73
2022/01/01 03:25:05;;;;;;;29.60;22.35;;;4.20;87.30;;;;;;10892847;32;20031;-73
2022/01/01 03:31:07;;;;;;;40.58;27.80;;;4.10;87.20;;;;;;10905937;32;20308;-72
2022/01/01 03:37:09;;;;;;;38.40;18.50;;;4.10;87.20;;;;;;10892355;32;20058;-72
2022/01/01 03:43:11;;;;;;;33.20;22.85;;;4.10;87.40;;;;;;10902911;32;20020;-73
2022/01/01 03:49:14;;;;;;;35.00;27.35;;;4.10;87.40;;;;;;10905530;32;20015;-73
2022/01/01 03:55:15;;;;;;;23.83;19.87;;;4.10;87.30;;;;;;10905103;32;20015;-73
2022/01/01 04:01:17;;;;;;;21.83;16.17;;;4.10;87.40;;;;;;10891806;32;20026;-73
2022/01/01 04:07:20;;;;;;;23.52;15.93;;;4.00;87.20;;;;;;10905015;32;20023;-73
2022/01/01 04:13:22;;;;;;;24.37;17.83;;;3.90;87.40;;;;;;10904872;32;20340;-73
2022/01/01 04:19:33;;;;;;;17.33;13.05;;;3.90;87.40;;;;;;10904715;32;20042;-73
2022/01/01 04:25:36;;;;;;;24.17;17.83;;;4.00;87.50;;;;;;10900406;32;20320;-73
2022/01/01 04:31:38;;;;;;;21.73;16.27;;;4.00;87.40;;;;;;10891034;32;20019;-73
2022/01/01 04:37:50;;;;;;;24.60;19.25;;;4.00;87.40;;;;;;10901976;32;20031;-73
2022/01/01 04:43:52;;;;;;;29.02;22.50;;;3.90;87.30;;;;;;10904249;32;20016;-73
2022/01/01 04:49:54;;;;;;;18.33;12.20;;;3.80;87.30;;;;;;10899935;32;20430;-73
2022/01/01 04:55:56;;;;;;;26.75;19.25;;;3.80;87.40;;;;;;10904088;32;20038;-73
2022/01/01 05:01:58;;;;;;;26.75;18.27;;;3.80;87.40;;;;;;10904003;32;20023;-73
2022/01/01 05:08:00;;;;;;;27.33;20.17;;;3.90;87.40;;;;;;10895130;32;20007;-73
2022/01/01 05:14:04;;;;;;;23.38;17.73;;;3.90;87.30;;;;;;10910920;32;20046;-72
2022/01/01 05:20:06;;;;;;;24.25;16.50;;;3.90;87.30;;;;;;10910562;32;20023;-73
2022/01/01 05:26:12;;;;;;;34.70;25.95;;;3.80;87.30;;;;;;10907067;32;20081;-72
2022/01/01 05:32:14;;;;;;;18.45;15.98;;;3.80;87.40;;;;;;10910278;32;20019;-73
2022/01/01 05:38:20;;;;;;;34.30;24.65;;;3.90;87.40;;;;;;10910264;32;20046;-73
2022/01/01 05:44:22;;;;;;;26.52;20.50;;;3.90;87.40;;;;;;10906521;32;20042;-72
2022/01/01 05:50:24;;;;;;;21.23;15.32;;;3.90;87.40;;;;;;10909760;32;20019;-73
2022/01/01 05:56:26;;;;;;;40.00;25.98;;;3.90;87.30;;;;;;10908681;32;20030;-73
2022/01/01 06:02:28;;;;;;;34.72;22.08;;;3.90;87.40;;;;;;10896013;32;20041;-73
2022/01/01 06:08:30;;;;;;;31.87;23.00;;;3.90;87.20;;;;;;10909200;32;20004;-73
2022/01/01 06:14:32;;;;;;;23.17;17.42;;;3.70;87.10;;;;;;10908881;32;20316;-73
2022/01/01 06:20:50;;;;;;;46.55;24.90;;;3.60;87.30;;;;;;10895021;32;20050;-72
2022/01/01 06:26:52;;;;;;;21.02;17.30;;;3.70;87.30;;;;;;10908204;32;20050;-73
2022/01/01 06:32:54;;;;;;;32.13;21.50;;;3.60;87.30;;;;;;10908333;32;20324;-73
2022/01/01 06:38:56;;;;;;;30.92;20.52;;;3.60;87.30;;;;;;10904677;32;20336;-73
2022/01/01 06:44:58;;;;;;;28.35;22.25;;;3.60;87.40;;;;;;10907816;32;20058;-73
2022/01/01 06:51:01;;;;;;;33.53;21.48;;;3.50;87.20;;;;;;10907538;32;20015;-73
2022/01/01 06:57:03;;;;;;;80.35;30.77;;;3.50;87.40;;;;;;10904792;32;20331;-73
2022/01/01 07:03:05;;;;;;;30.55;21.75;;;3.40;87.40;;;;;;10903127;32;20050;-73
2022/01/01 07:09:08;;;;;;;21.65;16.37;;;3.40;87.30;;;;;;10906886;32;20065;-72
2022/01/01 07:15:29;;;;;;;38.03;24.05;;;3.50;87.40;;;;;;10906662;32;20049;-73
2022/01/01 07:21:31;;;;;;;23.75;18.12;;;3.50;87.30;;;;;;10906542;32;20035;-72
2022/01/01 07:27:33;;;;;;;17.73;12.48;;;3.60;87.40;;;;;;10905867;32;20028;-73
2022/01/01 07:33:36;;;;;;;24.17;16.58;;;3.60;87.40;;;;;;10906145;32;20019;-73
2022/01/01 07:39:38;;;;;;;27.65;18.58;;;3.60;87.40;;;;;;10905666;32;20049;-72
2022/01/01 07:45:41;;;;;;;31.83;23.27;;;3.60;87.20;;;;;;10905543;32;20301;-73
2022/01/01 07:51:50;;;;;;;27.10;18.75;;;3.60;87.30;;;;;;10905432;32;20402;-72
2022/01/01 07:57:53;;;;;;;24.37;18.10;;;3.50;87.40;;;;;;10891895;32;20019;-73
2022/01/01 08:04:01;;;;;;;83.93;41.13;;;3.60;87.50;;;;;;10905221;32;20427;-71
2022/01/01 08:10:05;;;;;;;27.13;20.95;;;3.50;87.20;;;;;;10904891;32;20065;-71
2022/01/01 08:16:07;;;;;;;52.75;26.55;;;3.20;87.00;;;;;;10904763;32;20049;-71
2022/01/01 08:22:35;;;;;;;32.53;24.37;;;3.20;87.10;;;;;;10904602;32;20058;-71
2022/01/01 08:28:37;;;;;;;66.47;34.88;;;3.10;87.00;;;;;;10904398;32;20023;-70
2022/01/01 08:34:43;;;;;;;114.45;44.42;;;3.00;87.00;;;;;;10904443;32;20063;-70
2022/01/01 08:40:46;;;;;;;49.47;31.73;;;2.90;86.80;;;;;;10903935;32;20408;-70
2022/01/01 08:46:48;;;;;;;29.80;22.55;;;2.80;86.90;;;;;;10911825;32;20024;-70
2022/01/01 08:52:50;;;;;;;72.57;34.03;;;2.80;87.00;;;;;;10897815;32;20023;-70
2022/01/01 08:58:54;;;;;;;28.75;23.42;;;3.00;87.20;;;;;;10911319;32;20061;-70
2022/01/01 09:04:56;;;;;;;23.45;18.05;;;3.20;87.20;;;;;;10911121;32;20019;-70
2022/01/01 09:10:58;;;;;;;34.28;24.90;;;3.30;87.20;;;;;;10911037;32;20050;-70
2022/01/01 09:17:02;;;;;;;30.33;20.02;;;3.20;87.10;;;;;;10897548;32;20015;-70
2022/01/01 09:23:04;;;;;;;30.50;22.70;;;3.40;87.30;;;;;;10893441;32;20400;-70
2022/01/01 09:29:10;;;;;;;37.47;27.80;;;3.50;87.40;;;;;;10910327;32;20034;-71
2022/01/01 09:35:14;;;;;;;22.83;16.70;;;3.70;87.60;;;;;;10910060;32;20049;-71
2022/01/01 09:42:22;;;;;;;21.80;15.40;;;3.70;87.40;;;;;;10906175;32;20023;-72
2022/01/01 09:48:25;;;;;;;29.23;24.40;;;3.70;87.30;;;;;;10830735;32;20023;-72
2022/01/01 09:54:30;;;;;;;29.60;22.60;;;3.90;87.50;;;;;;10826892;32;20024;-72
2022/01/01 10:00:32;;;;;;;25.25;18.73;;;3.90;87.50;;;;;;10830967;32;20446;-72
2022/01/01 10:06:35;;;;;;;32.50;24.23;;;3.90;87.50;;;;;;10830792;32;20395;-72
2022/01/01 10:12:43;;;;;;;30.30;25.45;;;4.00;87.40;;;;;;10830545;32;20042;-72
2022/01/01 10:18:53;;;;;;;35.42;25.90;;;4.10;87.70;;;;;;10830221;32;20381;-72
2022/01/01 10:32:01;;;;;;;36.00;24.65;;;4.10;87.40;;;;;;10908387;32;20105;-72
2022/01/01 10:38:06;;;;;;;30.10;22.50;;;4.10;87.30;;;;;;10907637;32;20018;-72
2022/01/01 10:44:08;;;;;;;42.80;25.33;;;4.10;87.20;;;;;;10903580;32;20026;-70
2022/01/01 10:56:20;;;;;;;139.23;49.33;;;4.00;87.00;;;;;;10907341;32;20024;-71
2022/01/01 11:02:25;;;;;;;62.67;38.53;;;4.00;86.80;;;;;;10890589;32;20058;-73
2022/01/01 11:08:27;;;;;;;62.25;35.17;;;3.90;86.90;;;;;;10907099;32;20038;-73
2022/01/01 11:14:32;;;;;;;97.88;34.83;;;3.90;87.00;;;;;;10906168;32;20023;-73
2022/01/01 11:20:50;;;;;;;47.67;33.42;;;3.90;87.00;;;;;;10906360;32;20027;-73
2022/01/01 11:26:53;;;;;;;55.28;42.38;;;3.90;87.10;;;;;;10906815;32;20027;-73
2022/01/01 11:33:09;;;;;;;42.50;32.72;;;4.00;87.00;;;;;;10906099;32;20422;-73
2022/01/01 11:39:22;;;;;;;62.70;43.78;;;4.00;87.10;;;;;;10905740;32;20031;-72
2022/01/01 11:45:43;;;;;;;47.83;36.40;;;4.00;87.10;;;;;;10904633;32;20049;-73
2022/01/01 11:51:52;;;;;;;47.75;35.05;;;4.10;87.20;;;;;;10905471;32;20027;-73
2022/01/01 11:57:59;;;;;;;39.33;28.47;;;4.20;87.30;;;;;;10904654;32;20344;-73
2022/01/01 12:04:01;;;;;;;34.97;25.67;;;4.40;87.20;;;;;;10902461;32;20019;-72
2022/01/01 12:16:47;;;;;;;47.00;38.10;;;4.80;87.10;;;;;;10904617;32;20022;-73
2022/01/01 12:22:50;;;;;;;53.55;38.67;;;5.10;87.20;;;;;;10897938;32;20054;-72
2022/01/01 12:29:16;;;;;;;53.80;39.50;;;5.30;87.00;;;;;;10904398;32;20027;-72
2022/01/01 12:35:18;;;;;;;62.13;47.35;;;5.60;86.90;;;;;;10904307;32;20058;-72
2022/01/01 12:41:31;;;;;;;60.10;44.60;;;5.70;86.90;;;;;;10904147;32;20058;-72
2022/01/01 12:47:35;;;;;;;69.53;52.85;;;5.90;87.10;;;;;;10904109;32;20054;-71
2022/01/01 12:53:38;;;;;;;68.75;49.10;;;6.00;87.00;;;;;;10903018;32;20298;-71
2022/01/01 12:59:42;;;;;;;41.45;34.33;;;6.10;87.10;;;;;;10903853;32;20028;-71
2022/01/01 13:05:44;;;;;;;61.20;48.53;;;6.20;87.20;;;;;;10899365;32;20023;-71
2022/01/01 13:11:57;;;;;;;50.08;41.00;;;6.20;87.10;;;;;;10903673;32;20332;-70
2022/01/01 13:18:00;;;;;;;49.22;36.28;;;6.20;87.00;;;;;;10903614;32;20019;-70
2022/01/01 13:24:05;;;;;;;49.55;37.08;;;6.20;86.90;;;;;;10903286;32;20043;-70
2022/01/01 13:30:22;;;;;;;57.25;35.97;;;6.10;86.90;;;;;;10908221;32;20053;-70
2022/01/01 13:36:36;;;;;;;39.75;31.35;;;6.00;87.00;;;;;;10910081;32;20023;-70
2022/01/01 13:42:38;;;;;;;40.95;29.50;;;6.00;87.30;;;;;;10909866;32;20435;-70
2022/01/01 13:48:43;;;;;;;39.35;31.80;;;5.90;87.20;;;;;;10909658;32;20024;-70
2022/01/01 13:55:02;;;;;;;65.07;45.80;;;5.70;87.30;;;;;;10909595;32;20027;-70
2022/01/01 14:01:05;;;;;;;65.60;49.20;;;5.70;87.30;;;;;;10907555;32;20027;-70
2022/01/01 14:07:08;;;;;;;42.92;31.50;;;5.60;87.50;;;;;;10907198;32;20023;-70
2022/01/01 14:13:11;;;;;;;60.55;40.42;;;5.60;87.60;;;;;;10908856;32;20390;-70
2022/01/01 14:19:15;;;;;;;44.60;34.13;;;5.60;87.60;;;;;;10905520;32;20093;-70
2022/01/01 14:25:18;;;;;;;35.10;26.67;;;5.50;87.60;;;;;;10908622;32;20046;-70
2022/01/01 14:31:21;;;;;;;72.40;40.50;;;5.50;87.70;;;;;;10905450;32;20027;-71
2022/01/01 14:37:24;;;;;;;28.50;19.52;;;5.50;87.60;;;;;;10907875;32;20335;-71
2022/01/01 14:43:27;;;;;;;71.68;44.50;;;5.50;87.60;;;;;;10907721;32;20019;-70
2022/01/01 14:49:39;;;;;;;38.55;27.08;;;5.50;87.60;;;;;;10907676;32;20065;-70
2022/01/01 14:56:11;;;;;;;60.40;45.55;;;5.40;87.60;;;;;;10906276;32;20437;-71
2022/01/01 15:02:16;;;;;;;44.97;30.67;;;5.40;87.70;;;;;;10907047;32;20035;-70
2022/01/01 15:08:22;;;;;;;41.15;30.33;;;5.40;87.70;;;;;;10907017;32;20061;-71
2022/01/01 15:14:27;;;;;;;97.35;45.63;;;5.30;87.70;;;;;;10893671;32;20023;-71
2022/01/01 15:20:29;;;;;;;34.15;23.55;;;5.40;87.70;;;;;;10906421;32;20081;-71
2022/01/01 15:26:33;;;;;;;57.97;30.10;;;5.40;87.70;;;;;;10906190;32;20360;-71
2022/01/01 15:39:06;;;;;;;42.47;29.08;;;5.30;87.70;;;;;;10906584;32;20031;-70
2022/01/01 15:45:08;;;;;;;47.55;29.63;;;5.30;87.70;;;;;;10903996;32;20429;-71
2022/01/01 15:51:11;;;;;;;40.50;28.27;;;5.20;87.60;;;;;;10905233;32;20050;-70
2022/01/01 15:57:50;;;;;;;36.60;24.45;;;5.20;87.70;;;;;;10903116;32;20396;-71
2022/01/01 16:04:14;;;;;;;37.47;21.37;;;5.20;87.80;;;;;;10754153;32;20365;-71
2022/01/01 16:10:18;;;;;;;41.70;28.58;;;5.20;87.80;;;;;;10753652;33;20040;-71
2022/01/01 16:16:22;;;;;;;28.40;21.10;;;5.10;87.70;;;;;;10752871;33;20095;-71
2022/01/01 16:22:24;;;;;;;27.25;18.70;;;5.10;87.70;;;;;;10752635;33;20044;-71
2022/01/01 16:28:29;;;;;;;23.27;16.92;;;5.00;87.80;;;;;;10753591;33;20036;-71
2022/01/01 16:34:31;;;;;;;28.65;21.95;;;5.00;87.70;;;;;;10751086;33;20399;-71
2022/01/01 16:40:50;;;;;;;20.77;15.10;;;5.10;87.70;;;;;;10873040;32;20065;-71
2022/01/01 16:47:03;;;;;;;28.80;21.20;;;5.00;87.70;;;;;;10904227;32;20378;-71
2022/01/01 16:53:07;;;;;;;21.98;13.95;;;5.10;87.70;;;;;;10899841;32;20054;-71
2022/01/01 16:59:13;;;;;;;32.33;23.45;;;5.00;87.60;;;;;;10903897;32;20053;-71
2022/01/01 17:05:15;;;;;;;27.17;18.10;;;5.00;87.60;;;;;;10910140;32;20039;-71
2022/01/01 17:11:40;;;;;;;21.67;17.65;;;4.90;87.60;;;;;;10911166;32;20042;-72
2022/01/01 17:18:08;;;;;;;46.67;25.98;;;4.90;87.70;;;;;;10897524;32;20023;-73
2022/01/01 17:24:17;;;;;;;32.20;24.70;;;4.80;87.60;;;;;;10897586;32;20434;-73
2022/01/01 17:30:21;;;;;;;37.60;28.42;;;4.70;87.70;;;;;;10897099;32;20325;-72
2022/01/01 17:36:28;;;;;;;73.40;33.95;;;4.60;87.60;;;;;;10895088;32;20308;-73
2022/01/01 17:42:32;;;;;;;22.37;18.17;;;4.50;87.60;;;;;;10926415;27;20027;-72
2022/01/01 17:48:42;;;;;;;19.98;14.13;;;4.50;87.60;;;;;;10985363;32;20044;-73
2022/01/01 17:54:45;;;;;;;28.10;21.15;;;4.40;87.70;;;;;;10985041;32;20041;-73
2022/01/01 18:00:47;;;;;;;44.08;23.33;;;4.50;87.70;;;;;;10983694;32;20030;-73
2022/01/01 18:07:11;;;;;;;34.00;27.10;;;4.50;87.60;;;;;;10984532;32;20433;-73
2022/01/01 18:13:24;;;;;;;41.08;30.98;;;4.40;87.50;;;;;;10979966;32;20010;-73
2022/01/01 18:19:31;;;;;;;27.62;20.75;;;4.40;87.50;;;;;;10984112;32;20420;-73
2022/01/01 18:25:40;;;;;;;51.80;37.78;;;4.30;87.50;;;;;;10983950;32;20022;-73
2022/01/01 18:31:45;;;;;;;47.30;26.48;;;4.20;87.50;;;;;;10983737;32;20015;-73
2022/01/01 18:37:49;;;;;;;37.42;22.42;;;4.20;87.60;;;;;;10983261;32;20053;-71
2022/01/01 18:43:52;;;;;;;41.30;26.50;;;4.20;87.60;;;;;;10983354;32;20421;-71
2022/01/01 18:49:54;;;;;;;47.38;29.02;;;4.20;87.50;;;;;;10983250;32;20014;-71
2022/01/01 18:55:59;;;;;;;25.73;20.08;;;4.10;87.50;;;;;;10969320;32;20027;-71
2022/01/01 19:02:05;;;;;;;34.58;22.42;;;4.10;87.50;;;;;;10968630;32;20063;-71
2022/01/01 19:15:20;;;;;;;25.85;15.93;;;4.20;87.50;;;;;;10792569;32;20024;-71
2022/01/01 19:21:23;;;;;;;21.42;14.02;;;4.20;87.50;;;;;;10790900;32;20028;-71
2022/01/01 19:27:27;;;;;;;22.67;17.05;;;4.30;87.40;;;;;;10758545;33;20283;-71
2022/01/01 19:40:13;;;;;;;19.15;14.93;;;4.30;87.40;;;;;;10754041;33;20033;-71
2022/01/01 19:46:18;;;;;;;20.62;16.42;;;4.30;87.40;;;;;;10753905;33;20020;-71
2022/01/01 19:52:51;;;;;;;27.30;20.88;;;4.30;87.40;;;;;;10937789;32;20061;-71
2022/01/01 19:58:54;;;;;;;20.67;15.48;;;4.30;87.40;;;;;;10943154;32;20441;-71
2022/01/01 20:04:57;;;;;;;19.02;15.27;;;4.30;87.40;;;;;;10942814;32;20037;-71
2022/01/01 20:11:21;;;;;;;16.60;10.88;;;4.20;87.40;;;;;;10926659;32;20041;-71
2022/01/01 20:17:23;;;;;;;33.45;20.17;;;4.30;87.40;;;;;;10926959;32;20410;-71
2022/01/01 20:23:26;;;;;;;18.85;15.77;;;4.20;87.30;;;;;;10942395;32;20304;-71
2022/01/01 20:29:28;;;;;;;39.53;29.87;;;4.20;87.30;;;;;;10942254;32;20041;-71
2022/01/01 20:35:30;;;;;;;30.10;19.92;;;4.10;87.40;;;;;;10940294;32;20023;-71
2022/01/01 20:41:32;;;;;;;18.02;15.98;;;4.20;87.40;;;;;;10941692;32;20019;-71
2022/01/01 20:47:35;;;;;;;30.85;22.27;;;4.20;87.40;;;;;;10939782;32;20031;-71
2022/01/01 20:53:45;;;;;;;44.90;35.97;;;4.20;87.40;;;;;;10941541;32;20026;-71
2022/01/01 20:59:47;;;;;;;51.90;40.65;;;4.30;87.30;;;;;;10940864;32;20035;-71
2022/01/01 21:05:55;;;;;;;29.35;22.55;;;4.20;87.30;;;;;;10940976;32;20046;-71
2022/01/01 21:11:59;;;;;;;27.62;20.20;;;4.20;87.50;;;;;;10940896;32;20057;-71
2022/01/01 21:18:03;;;;;;;28.60;20.30;;;4.10;87.50;;;;;;10940445;32;20062;-71
2022/01/01 21:24:06;;;;;;;18.35;14.02;;;4.10;87.50;;;;;;10940573;32;20073;-71
2022/01/01 21:30:21;;;;;;;19.05;15.20;;;4.10;87.50;;;;;;10940569;32;20339;-71
2022/01/01 21:36:23;;;;;;;17.48;14.18;;;4.10;87.50;;;;;;10940832;32;20035;-71
2022/01/01 21:42:25;;;;;;;26.42;19.77;;;4.10;87.40;;;;;;10940007;32;20296;-71
2022/01/01 21:48:27;;;;;;;18.87;14.05;;;4.10;87.50;;;;;;10943303;32;20061;-71
2022/01/01 21:54:29;;;;;;;42.20;26.85;;;4.10;87.40;;;;;;10943163;32;20022;-71
2022/01/01 22:00:31;;;;;;;27.13;19.37;;;4.10;87.30;;;;;;10947188;32;20058;-71
2022/01/01 22:06:35;;;;;;;22.02;16.08;;;4.10;87.40;;;;;;10946949;32;20041;-72
2022/01/01 22:12:37;;;;;;;19.42;15.68;;;4.10;87.40;;;;;;10946428;32;20065;-72
2022/01/01 22:18:39;;;;;;;35.63;20.45;;;4.10;87.40;;;;;;10946122;32;20046;-72
2022/01/01 22:24:44;;;;;;;29.02;22.60;;;4.10;87.30;;;;;;10945695;32;20093;-72
2022/01/01 22:30:46;;;;;;;24.40;19.70;;;4.20;87.30;;;;;;10945685;32;20053;-72
2022/01/01 22:36:51;;;;;;;20.60;16.45;;;4.20;87.20;;;;;;10942923;32;20046;-72
2022/01/01 22:42:54;;;;;;;23.55;15.60;;;4.00;87.10;;;;;;10945117;32;20023;-72
2022/01/01 22:48:56;;;;;;;24.20;18.23;;;3.90;87.20;;;;;;10942961;32;20027;-73
2022/01/01 22:54:58;;;;;;;22.87;18.30;;;3.80;87.30;;;;;;10944882;32;20023;-72
2022/01/01 23:01:05;;;;;;;29.83;24.70;;;3.70;87.30;;;;;;10943487;32;20031;-72
2022/01/01 23:07:07;;;;;;;22.33;17.37;;;3.80;87.40;;;;;;10944529;32;20023;-72
2022/01/01 23:13:09;;;;;;;23.48;20.23;;;3.80;87.10;;;;;;10944308;32;20077;-73
2022/01/01 23:19:12;;;;;;;18.90;15.73;;;3.70;87.10;;;;;;10943933;32;20058;-72
2022/01/01 23:25:15;;;;;;;29.95;20.35;;;3.60;87.20;;;;;;10940498;32;20031;-73
2022/01/01 23:31:26;;;;;;;19.23;16.08;;;3.60;87.00;;;;;;10930158;32;20049;-73
2022/01/01 23:37:30;;;;;;;23.40;15.32;;;3.40;87.10;;;;;;10943353;32;20354;-72
2022/01/01 23:43:33;;;;;;;20.15;15.93;;;3.40;87.30;;;;;;10929666;32;20061;-72
2022/01/01 23:49:36;;;;;;;16.17;11.25;;;3.40;87.20;;;;;;10942825;32;20388;-72
2022/01/01 23:55:40;;;;;;;16.73;10.57;;;3.40;87.20;;;;;;10942697;32;20057;-72
